sensor_id;sensor_type;location;lat;lon;timestamp;temperature;humidity
21316;DHT22;10817;55.820;13.030;2022-09-17T00:00:34;12.10;99.90
21316;DHT22;10817;55.820;13.030;2022-09-17T00:03:05;12.10;99.90
21316;DHT22;10817;55.820;13.030;2022-09-17T00:05:32;12.00;99.90
21316;DHT22;10817;55.820;13.030;2022-09-17T00:08:02;12.00;99.90
21316;DHT22;10817;55.820;13.030;2022-09-17T00:10:29;12.00;99.90
21316;DHT22;10817;55.820;13.030;2022-09-17T00:12:56;12.10;99.90
21316;DHT22;10817;55.820;13.030;2022-09-17T00:15:23;12.00;99.90
21316;DHT22;10817;55.820;13.030;2022-09-17T00:17:53;12.00;99.90
21316;DHT22;10817;55.820;13.030;2022-09-17T00:20:24;12.00;99.90
21316;DHT22;10817;55.820;13.030;2022-09-17T00:22:51;12.00;99.90
21316;DHT22;10817;55.820;13.030;2022-09-17T00:25:19;12.00;99.90
21316;DHT22;10817;55.820;13.030;2022-09-17T00:27:46;12.00;99.90
21316;DHT22;10817;55.820;13.030;2022-09-17T00:30:13;11.90;99.90
21316;DHT22;10817;55.820;13.030;2022-09-17T00:32:40;11.80;99.90
21316;DHT22;10817;55.820;13.030;2022-09-17T00:35:07;11.70;99.90
21316;DHT22;10817;55.820;13.030;2022-09-17T00:37:35;11.50;99.90
21316;DHT22;10817;55.820;13.030;2022-09-17T00:40:02;11.40;99.90
21316;DHT22;10817;55.820;13.030;2022-09-17T00:42:29;11.30;99.90
21316;DHT22;10817;55.820;13.030;2022-09-17T00:44:56;11.20;99.90
21316;DHT22;10817;55.820;13.030;2022-09-17T00:47:28;11.10;99.90
21316;DHT22;10817;55.820;13.030;2022-09-17T00:50:03;11.00;99.90
21316;DHT22;10817;55.820;13.030;2022-09-17T00:52:33;10.80;99.90
21316;DHT22;10817;55.820;13.030;2022-09-17T00:55:09;10.70;99.90
21316;DHT22;10817;55.820;13.030;2022-09-17T00:57:39;10.60;99.90
21316;DHT22;10817;55.820;13.030;2022-09-17T01:00:07;10.50;99.90
21316;DHT22;10817;55.820;13.030;2022-09-17T01:02:35;10.40;99.90
21316;DHT22;10817;55.820;13.030;2022-09-17T01:05:02;10.40;99.90
21316;DHT22;10817;55.820;13.030;2022-09-17T01:07:51;10.20;99.90
21316;DHT22;10817;55.820;13.030;2022-09-17T01:10:44;10.00;99.90
21316;DHT22;10817;55.820;13.030;2022-09-17T01:13:20;9.90;99.90
21316;DHT22;10817;55.820;13.030;2022-09-17T01:15:56;9.80;99.90
21316;DHT22;10817;55.820;13.030;2022-09-17T01:18:40;9.70;99.90
21316;DHT22;10817;55.820;13.030;2022-09-17T01:21:35;9.70;99.90
21316;DHT22;10817;55.820;13.030;2022-09-17T01:24:33;9.60;99.90
21316;DHT22;10817;55.820;13.030;2022-09-17T01:30:17;9.50;99.90
21316;DHT22;10817;55.820;13.030;2022-09-17T01:32:51;9.40;99.90
21316;DHT22;10817;55.820;13.030;2022-09-17T01:35:26;9.40;99.90
21316;DHT22;10817;55.820;13.030;2022-09-17T01:38:01;9.40;99.90
21316;DHT22;10817;55.820;13.030;2022-09-17T01:40:35;9.40;99.90
21316;DHT22;10817;55.820;13.030;2022-09-17T01:43:07;9.50;99.90
21316;DHT22;10817;55.820;13.030;2022-09-17T01:45:39;9.60;99.90
21316;DHT22;10817;55.820;13.030;2022-09-17T01:48:11;9.80;99.90
21316;DHT22;10817;55.820;13.030;2022-09-17T01:50:44;10.00;99.90
21316;DHT22;10817;55.820;13.030;2022-09-17T01:53:14;10.40;99.90
21316;DHT22;10817;55.820;13.030;2022-09-17T01:55:44;10.50;99.90
21316;DHT22;10817;55.820;13.030;2022-09-17T01:58:18;10.60;99.90
21316;DHT22;10817;55.820;13.030;2022-09-17T02:00:50;10.70;99.90
21316;DHT22;10817;55.820;13.030;2022-09-17T02:03:23;10.70;99.90
21316;DHT22;10817;55.820;13.030;2022-09-17T02:05:54;10.80;99.90
21316;DHT22;10817;55.820;13.030;2022-09-17T02:08:24;10.80;99.90
21316;DHT22;10817;55.820;13.030;2022-09-17T02:10:56;10.90;99.90
21316;DHT22;10817;55.820;13.030;2022-09-17T02:13:28;11.00;99.90
21316;DHT22;10817;55.820;13.030;2022-09-17T02:16:00;11.00;99.90
21316;DHT22;10817;55.820;13.030;2022-09-17T02:18:35;11.00;99.90
21316;DHT22;10817;55.820;13.030;2022-09-17T02:21:07;11.10;99.90
21316;DHT22;10817;55.820;13.030;2022-09-17T02:23:44;11.10;99.90
21316;DHT22;10817;55.820;13.030;2022-09-17T02:26:15;11.00;99.90
21316;DHT22;10817;55.820;13.030;2022-09-17T02:28:47;10.80;99.90
21316;DHT22;10817;55.820;13.030;2022-09-17T02:31:17;10.90;99.90
21316;DHT22;10817;55.820;13.030;2022-09-17T02:33:47;10.80;99.90
21316;DHT22;10817;55.820;13.030;2022-09-17T02:36:15;10.90;99.90
21316;DHT22;10817;55.820;13.030;2022-09-17T02:38:43;11.00;99.90
21316;DHT22;10817;55.820;13.030;2022-09-17T02:41:14;11.10;99.90
21316;DHT22;10817;55.820;13.030;2022-09-17T02:43:50;11.00;99.90
21316;DHT22;10817;55.820;13.030;2022-09-17T02:46:33;11.00;99.90
21316;DHT22;10817;55.820;13.030;2022-09-17T02:49:19;10.90;99.90
21316;DHT22;10817;55.820;13.030;2022-09-17T02:51:55;11.00;99.90
21316;DHT22;10817;55.820;13.030;2022-09-17T02:54:28;10.90;99.90
21316;DHT22;10817;55.820;13.030;2022-09-17T02:57:05;10.80;99.90
21316;DHT22;10817;55.820;13.030;2022-09-17T02:59:37;10.80;99.90
21316;DHT22;10817;55.820;13.030;2022-09-17T03:02:12;10.80;99.90
21316;DHT22;10817;55.820;13.030;2022-09-17T03:04:45;10.80;99.90
21316;DHT22;10817;55.820;13.030;2022-09-17T03:07:16;10.80;99.90
21316;DHT22;10817;55.820;13.030;2022-09-17T03:09:43;10.80;99.90
21316;DHT22;10817;55.820;13.030;2022-09-17T03:12:10;10.90;99.90
21316;DHT22;10817;55.820;13.030;2022-09-17T03:14:38;11.00;99.90
21316;DHT22;10817;55.820;13.030;2022-09-17T03:17:05;11.10;99.90
21316;DHT22;10817;55.820;13.030;2022-09-17T03:19:31;11.10;99.90
21316;DHT22;10817;55.820;13.030;2022-09-17T03:21:59;11.10;99.90
21316;DHT22;10817;55.820;13.030;2022-09-17T03:24:26;11.10;99.90
21316;DHT22;10817;55.820;13.030;2022-09-17T03:26:53;11.20;99.90
21316;DHT22;10817;55.820;13.030;2022-09-17T03:29:20;11.20;99.90
21316;DHT22;10817;55.820;13.030;2022-09-17T03:31:47;11.30;99.90
21316;DHT22;10817;55.820;13.030;2022-09-17T03:34:14;11.30;99.90
21316;DHT22;10817;55.820;13.030;2022-09-17T03:36:40;11.40;99.90
21316;DHT22;10817;55.820;13.030;2022-09-17T03:39:09;11.40;99.90
21316;DHT22;10817;55.820;13.030;2022-09-17T03:41:35;11.40;99.90
21316;DHT22;10817;55.820;13.030;2022-09-17T03:44:03;11.40;99.90
21316;DHT22;10817;55.820;13.030;2022-09-17T03:46:30;11.40;99.90
21316;DHT22;10817;55.820;13.030;2022-09-17T03:48:56;11.30;99.90
21316;DHT22;10817;55.820;13.030;2022-09-17T03:51:23;11.20;99.90
21316;DHT22;10817;55.820;13.030;2022-09-17T03:53:50;11.10;99.90
21316;DHT22;10817;55.820;13.030;2022-09-17T03:56:18;11.10;99.90
21316;DHT22;10817;55.820;13.030;2022-09-17T03:58:45;11.00;99.90
21316;DHT22;10817;55.820;13.030;2022-09-17T04:01:12;10.90;99.90
21316;DHT22;10817;55.820;13.030;2022-09-17T04:03:39;10.80;99.90
21316;DHT22;10817;55.820;13.030;2022-09-17T04:06:07;10.80;99.90
21316;DHT22;10817;55.820;13.030;2022-09-17T04:08:34;10.70;99.90
21316;DHT22;10817;55.820;13.030;2022-09-17T04:11:01;10.70;99.90
21316;DHT22;10817;55.820;13.030;2022-09-17T04:13:29;10.60;99.90
21316;DHT22;10817;55.820;13.030;2022-09-17T04:15:56;10.60;99.90
21316;DHT22;10817;55.820;13.030;2022-09-17T04:18:23;10.50;99.90
21316;DHT22;10817;55.820;13.030;2022-09-17T04:20:50;10.40;99.90
21316;DHT22;10817;55.820;13.030;2022-09-17T04:23:16;10.40;99.90
21316;DHT22;10817;55.820;13.030;2022-09-17T04:25:43;10.40;99.90
21316;DHT22;10817;55.820;13.030;2022-09-17T04:28:10;10.50;99.90
21316;DHT22;10817;55.820;13.030;2022-09-17T04:30:38;10.40;99.90
21316;DHT22;10817;55.820;13.030;2022-09-17T04:33:07;10.40;99.90
21316;DHT22;10817;55.820;13.030;2022-09-17T04:35:34;10.40;99.90
21316;DHT22;10817;55.820;13.030;2022-09-17T04:38:01;10.30;99.90
21316;DHT22;10817;55.820;13.030;2022-09-17T04:40:28;10.30;99.90
21316;DHT22;10817;55.820;13.030;2022-09-17T04:42:57;10.50;99.90
21316;DHT22;10817;55.820;13.030;2022-09-17T04:45:27;10.50;99.90
21316;DHT22;10817;55.820;13.030;2022-09-17T04:47:56;10.50;99.90
21316;DHT22;10817;55.820;13.030;2022-09-17T04:50:23;10.50;99.90
21316;DHT22;10817;55.820;13.030;2022-09-17T04:52:50;10.50;99.90
21316;DHT22;10817;55.820;13.030;2022-09-17T04:55:17;10.50;99.90
21316;DHT22;10817;55.820;13.030;2022-09-17T04:57:47;10.40;99.90
21316;DHT22;10817;55.820;13.030;2022-09-17T05:00:15;10.40;99.90
21316;DHT22;10817;55.820;13.030;2022-09-17T05:02:44;10.40;99.90
21316;DHT22;10817;55.820;13.030;2022-09-17T05:05:12;10.30;99.90
21316;DHT22;10817;55.820;13.030;2022-09-17T05:07:40;10.40;99.90
21316;DHT22;10817;55.820;13.030;2022-09-17T05:10:08;10.40;99.90
21316;DHT22;10817;55.820;13.030;2022-09-17T05:12:35;10.40;99.90
21316;DHT22;10817;55.820;13.030;2022-09-17T05:15:03;10.40;99.90
21316;DHT22;10817;55.820;13.030;2022-09-17T05:17:30;10.30;99.90
21316;DHT22;10817;55.820;13.030;2022-09-17T05:19:57;10.30;99.90
21316;DHT22;10817;55.820;13.030;2022-09-17T05:22:25;10.20;99.90
21316;DHT22;10817;55.820;13.030;2022-09-17T05:24:52;10.20;99.90
21316;DHT22;10817;55.820;13.030;2022-09-17T05:27:19;10.20;99.90
21316;DHT22;10817;55.820;13.030;2022-09-17T05:29:46;10.20;99.90
21316;DHT22;10817;55.820;13.030;2022-09-17T05:32:13;10.20;99.90
21316;DHT22;10817;55.820;13.030;2022-09-17T05:34:39;10.30;99.90
21316;DHT22;10817;55.820;13.030;2022-09-17T05:37:08;10.20;99.90
21316;DHT22;10817;55.820;13.030;2022-09-17T05:39:36;10.30;99.90
21316;DHT22;10817;55.820;13.030;2022-09-17T05:42:04;10.30;99.90
21316;DHT22;10817;55.820;13.030;2022-09-17T05:44:31;10.20;99.90
21316;DHT22;10817;55.820;13.030;2022-09-17T05:46:57;10.20;99.90
21316;DHT22;10817;55.820;13.030;2022-09-17T05:49:24;10.30;99.90
21316;DHT22;10817;55.820;13.030;2022-09-17T05:51:51;10.30;99.90
21316;DHT22;10817;55.820;13.030;2022-09-17T05:54:18;10.40;99.90
21316;DHT22;10817;55.820;13.030;2022-09-17T05:56:46;10.40;99.90
21316;DHT22;10817;55.820;13.030;2022-09-17T05:59:13;10.50;99.90
21316;DHT22;10817;55.820;13.030;2022-09-17T06:01:40;10.60;99.90
21316;DHT22;10817;55.820;13.030;2022-09-17T06:04:08;10.70;99.90
21316;DHT22;10817;55.820;13.030;2022-09-17T06:06:35;10.80;99.90
21316;DHT22;10817;55.820;13.030;2022-09-17T06:09:02;10.80;99.90
21316;DHT22;10817;55.820;13.030;2022-09-17T06:11:29;10.90;99.90
21316;DHT22;10817;55.820;13.030;2022-09-17T06:13:57;11.00;99.90
21316;DHT22;10817;55.820;13.030;2022-09-17T06:16:24;11.10;99.90
21316;DHT22;10817;55.820;13.030;2022-09-17T06:18:52;11.20;99.90
21316;DHT22;10817;55.820;13.030;2022-09-17T06:21:19;11.30;99.90
21316;DHT22;10817;55.820;13.030;2022-09-17T06:23:47;11.40;99.90
21316;DHT22;10817;55.820;13.030;2022-09-17T06:26:14;11.60;99.90
21316;DHT22;10817;55.820;13.030;2022-09-17T06:28:41;11.60;99.90
21316;DHT22;10817;55.820;13.030;2022-09-17T06:31:11;11.70;99.90
21316;DHT22;10817;55.820;13.030;2022-09-17T06:33:38;11.80;99.90
21316;DHT22;10817;55.820;13.030;2022-09-17T06:36:07;11.80;99.90
21316;DHT22;10817;55.820;13.030;2022-09-17T06:38:35;11.90;99.90
21316;DHT22;10817;55.820;13.030;2022-09-17T06:41:03;12.00;99.90
21316;DHT22;10817;55.820;13.030;2022-09-17T06:43:30;12.10;99.90
21316;DHT22;10817;55.820;13.030;2022-09-17T06:45:58;12.10;99.90
21316;DHT22;10817;55.820;13.030;2022-09-17T06:48:27;12.30;99.90
21316;DHT22;10817;55.820;13.030;2022-09-17T06:51:00;12.30;99.90
21316;DHT22;10817;55.820;13.030;2022-09-17T06:53:27;12.40;99.90
21316;DHT22;10817;55.820;13.030;2022-09-17T06:55:56;12.40;99.90
21316;DHT22;10817;55.820;13.030;2022-09-17T06:58:23;12.40;99.90
21316;DHT22;10817;55.820;13.030;2022-09-17T07:00:50;12.40;99.90
21316;DHT22;10817;55.820;13.030;2022-09-17T07:03:18;12.50;99.90
21316;DHT22;10817;55.820;13.030;2022-09-17T07:05:49;12.50;99.90
21316;DHT22;10817;55.820;13.030;2022-09-17T07:08:16;12.50;99.90
21316;DHT22;10817;55.820;13.030;2022-09-17T07:10:43;12.60;99.90
21316;DHT22;10817;55.820;13.030;2022-09-17T07:13:10;12.70;99.90
21316;DHT22;10817;55.820;13.030;2022-09-17T07:15:36;12.70;99.90
21316;DHT22;10817;55.820;13.030;2022-09-17T07:18:07;12.80;99.90
21316;DHT22;10817;55.820;13.030;2022-09-17T07:20:35;12.80;99.90
21316;DHT22;10817;55.820;13.030;2022-09-17T07:23:03;12.90;99.90
21316;DHT22;10817;55.820;13.030;2022-09-17T07:25:30;12.90;99.90
21316;DHT22;10817;55.820;13.030;2022-09-17T07:27:56;13.00;99.90
21316;DHT22;10817;55.820;13.030;2022-09-17T07:30:24;13.00;99.90
21316;DHT22;10817;55.820;13.030;2022-09-17T07:32:51;13.10;99.90
21316;DHT22;10817;55.820;13.030;2022-09-17T07:35:17;13.20;99.90
21316;DHT22;10817;55.820;13.030;2022-09-17T07:37:44;13.20;99.90
21316;DHT22;10817;55.820;13.030;2022-09-17T07:40:13;13.30;99.90
21316;DHT22;10817;55.820;13.030;2022-09-17T07:42:40;13.30;99.90
21316;DHT22;10817;55.820;13.030;2022-09-17T07:45:07;13.40;99.90
21316;DHT22;10817;55.820;13.030;2022-09-17T07:47:38;13.50;99.90
21316;DHT22;10817;55.820;13.030;2022-09-17T07:50:07;13.50;99.90
21316;DHT22;10817;55.820;13.030;2022-09-17T07:52:34;13.60;99.90
21316;DHT22;10817;55.820;13.030;2022-09-17T07:55:01;13.70;99.90
21316;DHT22;10817;55.820;13.030;2022-09-17T07:57:29;13.70;99.90
21316;DHT22;10817;55.820;13.030;2022-09-17T07:59:56;13.80;99.90
21316;DHT22;10817;55.820;13.030;2022-09-17T08:02:22;13.80;99.90
21316;DHT22;10817;55.820;13.030;2022-09-17T08:04:49;13.90;99.90
21316;DHT22;10817;55.820;13.030;2022-09-17T08:07:16;14.00;99.90
21316;DHT22;10817;55.820;13.030;2022-09-17T08:09:43;14.00;99.90
21316;DHT22;10817;55.820;13.030;2022-09-17T08:12:10;14.10;99.90
21316;DHT22;10817;55.820;13.030;2022-09-17T08:14:38;14.20;99.90
21316;DHT22;10817;55.820;13.030;2022-09-17T08:17:06;14.30;99.90
21316;DHT22;10817;55.820;13.030;2022-09-17T08:19:33;14.50;99.90
21316;DHT22;10817;55.820;13.030;2022-09-17T08:22:00;14.70;99.90
21316;DHT22;10817;55.820;13.030;2022-09-17T08:24:27;14.90;99.90
21316;DHT22;10817;55.820;13.030;2022-09-17T08:26:54;15.10;99.90
21316;DHT22;10817;55.820;13.030;2022-09-17T08:29:21;15.20;99.90
21316;DHT22;10817;55.820;13.030;2022-09-17T08:31:49;15.20;99.90
21316;DHT22;10817;55.820;13.030;2022-09-17T08:34:16;15.30;99.90
21316;DHT22;10817;55.820;13.030;2022-09-17T08:36:43;15.60;99.90
21316;DHT22;10817;55.820;13.030;2022-09-17T08:39:10;15.90;99.90
21316;DHT22;10817;55.820;13.030;2022-09-17T08:41:47;15.90;99.90
21316;DHT22;10817;55.820;13.030;2022-09-17T08:44:23;15.80;99.90
21316;DHT22;10817;55.820;13.030;2022-09-17T08:46:57;15.80;99.90
21316;DHT22;10817;55.820;13.030;2022-09-17T08:49:31;15.90;99.90
21316;DHT22;10817;55.820;13.030;2022-09-17T08:52:24;16.20;99.90
21316;DHT22;10817;55.820;13.030;2022-09-17T08:55:00;16.50;99.90
21316;DHT22;10817;55.820;13.030;2022-09-17T08:57:35;16.30;99.90
21316;DHT22;10817;55.820;13.030;2022-09-17T09:00:09;16.10;99.90
21316;DHT22;10817;55.820;13.030;2022-09-17T09:02:50;15.90;99.90
21316;DHT22;10817;55.820;13.030;2022-09-17T09:05:23;15.80;99.90
21316;DHT22;10817;55.820;13.030;2022-09-17T09:07:55;16.10;99.90
21316;DHT22;10817;55.820;13.030;2022-09-17T09:10:28;16.20;99.90
21316;DHT22;10817;55.820;13.030;2022-09-17T09:12:58;16.20;99.90
21316;DHT22;10817;55.820;13.030;2022-09-17T09:15:32;16.50;99.90
21316;DHT22;10817;55.820;13.030;2022-09-17T09:18:11;16.80;99.90
21316;DHT22;10817;55.820;13.030;2022-09-17T09:20:48;17.30;99.90
21316;DHT22;10817;55.820;13.030;2022-09-17T09:23:18;18.90;99.90
21316;DHT22;10817;55.820;13.030;2022-09-17T09:25:54;19.90;99.90
21316;DHT22;10817;55.820;13.030;2022-09-17T09:28:43;19.70;99.90
21316;DHT22;10817;55.820;13.030;2022-09-17T09:31:23;19.40;99.90
21316;DHT22;10817;55.820;13.030;2022-09-17T09:33:54;20.00;99.90
21316;DHT22;10817;55.820;13.030;2022-09-17T09:36:27;20.20;99.90
21316;DHT22;10817;55.820;13.030;2022-09-17T09:38:58;21.10;99.90
21316;DHT22;10817;55.820;13.030;2022-09-17T09:41:31;21.10;99.90
21316;DHT22;10817;55.820;13.030;2022-09-17T09:44:03;22.10;99.90
21316;DHT22;10817;55.820;13.030;2022-09-17T09:46:40;22.20;99.90
21316;DHT22;10817;55.820;13.030;2022-09-17T09:49:21;22.40;99.90
21316;DHT22;10817;55.820;13.030;2022-09-17T09:51:57;21.60;99.90
21316;DHT22;10817;55.820;13.030;2022-09-17T09:54:40;22.10;99.90
21316;DHT22;10817;55.820;13.030;2022-09-17T09:57:12;22.60;99.90
21316;DHT22;10817;55.820;13.030;2022-09-17T09:59:40;22.20;99.90
21316;DHT22;10817;55.820;13.030;2022-09-17T10:02:08;22.20;99.90
21316;DHT22;10817;55.820;13.030;2022-09-17T10:04:38;23.00;99.90
21316;DHT22;10817;55.820;13.030;2022-09-17T10:07:06;22.40;99.90
21316;DHT22;10817;55.820;13.030;2022-09-17T10:09:35;21.90;99.90
21316;DHT22;10817;55.820;13.030;2022-09-17T10:12:15;21.10;99.90
21316;DHT22;10817;55.820;13.030;2022-09-17T10:14:44;22.20;99.90
21316;DHT22;10817;55.820;13.030;2022-09-17T10:17:19;22.90;99.90
21316;DHT22;10817;55.820;13.030;2022-09-17T10:20:12;23.20;99.90
21316;DHT22;10817;55.820;13.030;2022-09-17T10:22:40;23.50;99.90
21316;DHT22;10817;55.820;13.030;2022-09-17T10:25:29;23.90;99.90
21316;DHT22;10817;55.820;13.030;2022-09-17T10:27:59;24.20;99.90
21316;DHT22;10817;55.820;13.030;2022-09-17T10:30:27;24.10;99.90
21316;DHT22;10817;55.820;13.030;2022-09-17T10:33:19;23.70;99.90
21316;DHT22;10817;55.820;13.030;2022-09-17T10:35:57;23.70;99.90
21316;DHT22;10817;55.820;13.030;2022-09-17T10:38:33;24.10;99.90
